Alem Paraiba, Brazil
Current Conditions -  °F | °C
As of 4:00 PM on Tuesday 21 Oct 2014 (Local Time) from SBME Reporting Station
Overcast Overcast  
Wind Chill: 72°   Ceiling: 2000
Heat Index: 72°   Visibility: 5mi
Dew Point: 68°   Wind: 8mph
Humidity: 88%   Direction: 190°S
Pressure: 30.06"   Gusts: NA
Location:  21.89°S, 42.7°W
Report Text: SBME 211800Z 19007KT 8000 BKN020 OVC070 22/20 Q1018
Loading
Personal Weather Stations






























Interactive Weather Map
Tropical Storm Tracking
New forecast layout! Learn more

10-Day Weather Forecast

Advertisements
Track Severe Weather on mobile